sensor_id;sensor_type;location;lat;lon;timestamp;temperature;humidity
5588;DHT22;2816;49.778;9.986;2023-02-28T00:01:07;-1.10;99.90
5588;DHT22;2816;49.778;9.986;2023-02-28T00:03:34;-1.10;99.90
5588;DHT22;2816;49.778;9.986;2023-02-28T00:06:02;-1.10;99.90
5588;DHT22;2816;49.778;9.986;2023-02-28T00:08:29;-1.10;99.90
5588;DHT22;2816;49.778;9.986;2023-02-28T00:11:01;-1.10;99.90
5588;DHT22;2816;49.778;9.986;2023-02-28T00:13:28;-1.10;99.90
5588;DHT22;2816;49.778;9.986;2023-02-28T00:15:59;-1.20;99.90
5588;DHT22;2816;49.778;9.986;2023-02-28T00:18:27;-1.20;99.90
5588;DHT22;2816;49.778;9.986;2023-02-28T00:20:54;-1.20;99.90
5588;DHT22;2816;49.778;9.986;2023-02-28T00:23:21;-1.20;99.90
5588;DHT22;2816;49.778;9.986;2023-02-28T00:25:48;-1.20;99.90
5588;DHT22;2816;49.778;9.986;2023-02-28T00:28:17;-1.30;99.90
5588;DHT22;2816;49.778;9.986;2023-02-28T00:30:44;-1.30;99.90
5588;DHT22;2816;49.778;9.986;2023-02-28T00:33:11;-1.40;99.90
5588;DHT22;2816;49.778;9.986;2023-02-28T00:35:38;-1.30;99.90
5588;DHT22;2816;49.778;9.986;2023-02-28T00:38:05;-1.30;99.90
5588;DHT22;2816;49.778;9.986;2023-02-28T00:40:32;-1.30;99.90
5588;DHT22;2816;49.778;9.986;2023-02-28T00:42:59;-1.30;99.90
5588;DHT22;2816;49.778;9.986;2023-02-28T00:45:27;-1.30;99.90
5588;DHT22;2816;49.778;9.986;2023-02-28T00:47:54;-1.40;99.90
5588;DHT22;2816;49.778;9.986;2023-02-28T00:50:21;-1.30;99.90
5588;DHT22;2816;49.778;9.986;2023-02-28T00:52:48;-1.40;99.90
5588;DHT22;2816;49.778;9.986;2023-02-28T00:55:15;-1.40;99.90
5588;DHT22;2816;49.778;9.986;2023-02-28T00:57:42;-1.30;99.90
5588;DHT22;2816;49.778;9.986;2023-02-28T01:00:10;-1.30;99.90
5588;DHT22;2816;49.778;9.986;2023-02-28T01:02:39;-1.30;99.90
5588;DHT22;2816;49.778;9.986;2023-02-28T01:05:06;-1.40;99.90
5588;DHT22;2816;49.778;9.986;2023-02-28T01:07:33;-1.40;99.90
5588;DHT22;2816;49.778;9.986;2023-02-28T01:10:00;-1.40;99.90
5588;DHT22;2816;49.778;9.986;2023-02-28T01:12:27;-1.40;99.90
5588;DHT22;2816;49.778;9.986;2023-02-28T01:14:54;-1.40;99.90
5588;DHT22;2816;49.778;9.986;2023-02-28T01:17:21;-1.50;99.90
5588;DHT22;2816;49.778;9.986;2023-02-28T01:19:49;-1.50;99.90
5588;DHT22;2816;49.778;9.986;2023-02-28T01:22:16;-1.50;99.90
5588;DHT22;2816;49.778;9.986;2023-02-28T01:24:43;-1.50;99.90
5588;DHT22;2816;49.778;9.986;2023-02-28T01:27:10;-1.50;99.90
5588;DHT22;2816;49.778;9.986;2023-02-28T01:29:37;-1.50;99.90
5588;DHT22;2816;49.778;9.986;2023-02-28T01:32:04;-1.60;99.90
5588;DHT22;2816;49.778;9.986;2023-02-28T01:34:31;-1.60;99.90
5588;DHT22;2816;49.778;9.986;2023-02-28T01:36:59;-1.70;99.90
5588;DHT22;2816;49.778;9.986;2023-02-28T01:39:27;-1.60;99.90
5588;DHT22;2816;49.778;9.986;2023-02-28T01:41:53;-1.60;99.90
5588;DHT22;2816;49.778;9.986;2023-02-28T01:47:27;-1.70;99.90
5588;DHT22;2816;49.778;9.986;2023-02-28T01:49:54;-1.60;99.90
5588;DHT22;2816;49.778;9.986;2023-02-28T01:52:23;-1.60;99.90
5588;DHT22;2816;49.778;9.986;2023-02-28T01:54:52;-1.80;99.90
5588;DHT22;2816;49.778;9.986;2023-02-28T01:57:24;-1.70;99.90
5588;DHT22;2816;49.778;9.986;2023-02-28T01:59:57;-1.60;99.90
5588;DHT22;2816;49.778;9.986;2023-02-28T02:02:29;-1.60;99.90
5588;DHT22;2816;49.778;9.986;2023-02-28T02:05:00;-1.80;99.90
5588;DHT22;2816;49.778;9.986;2023-02-28T02:07:34;-1.70;99.90
5588;DHT22;2816;49.778;9.986;2023-02-28T02:10:04;-1.80;99.90
5588;DHT22;2816;49.778;9.986;2023-02-28T02:12:50;-1.80;99.90
5588;DHT22;2816;49.778;9.986;2023-02-28T02:15:26;-1.80;99.90
5588;DHT22;2816;49.778;9.986;2023-02-28T02:17:59;-1.80;99.90
5588;DHT22;2816;49.778;9.986;2023-02-28T02:20:56;-1.80;99.90
5588;DHT22;2816;49.778;9.986;2023-02-28T02:23:46;-1.80;99.90
5588;DHT22;2816;49.778;9.986;2023-02-28T02:32:47;-1.80;99.90
5588;DHT22;2816;49.778;9.986;2023-02-28T02:35:24;-1.90;99.90
5588;DHT22;2816;49.778;9.986;2023-02-28T02:37:59;-1.90;99.90
5588;DHT22;2816;49.778;9.986;2023-02-28T02:40:32;-1.80;99.90
5588;DHT22;2816;49.778;9.986;2023-02-28T02:43:08;-1.90;99.90
5588;DHT22;2816;49.778;9.986;2023-02-28T02:45:41;-1.90;99.90
5588;DHT22;2816;49.778;9.986;2023-02-28T02:48:13;-1.90;99.90
5588;DHT22;2816;49.778;9.986;2023-02-28T02:50:45;-1.90;99.90
5588;DHT22;2816;49.778;9.986;2023-02-28T02:53:15;-1.90;99.90
5588;DHT22;2816;49.778;9.986;2023-02-28T02:55:47;-2.00;99.90
5588;DHT22;2816;49.778;9.986;2023-02-28T02:58:21;-2.00;99.90
5588;DHT22;2816;49.778;9.986;2023-02-28T03:00:52;-2.00;99.90
5588;DHT22;2816;49.778;9.986;2023-02-28T03:03:20;-2.00;99.90
5588;DHT22;2816;49.778;9.986;2023-02-28T03:05:57;-2.00;99.90
5588;DHT22;2816;49.778;9.986;2023-02-28T03:08:25;-2.00;99.90
5588;DHT22;2816;49.778;9.986;2023-02-28T03:10:56;-2.00;99.90
5588;DHT22;2816;49.778;9.986;2023-02-28T03:16:32;-2.00;99.90
5588;DHT22;2816;49.778;9.986;2023-02-28T03:19:12;-2.00;99.90
5588;DHT22;2816;49.778;9.986;2023-02-28T03:21:51;-2.10;99.90
5588;DHT22;2816;49.778;9.986;2023-02-28T03:24:26;-2.00;99.90
5588;DHT22;2816;49.778;9.986;2023-02-28T03:27:00;-2.00;99.90
5588;DHT22;2816;49.778;9.986;2023-02-28T03:29:34;-2.10;99.90
5588;DHT22;2816;49.778;9.986;2023-02-28T03:32:05;-2.10;99.90
5588;DHT22;2816;49.778;9.986;2023-02-28T03:34:39;-2.10;99.90
5588;DHT22;2816;49.778;9.986;2023-02-28T03:37:12;-2.10;99.90
5588;DHT22;2816;49.778;9.986;2023-02-28T03:39:43;-2.10;99.90
5588;DHT22;2816;49.778;9.986;2023-02-28T03:42:15;-2.10;99.90
5588;DHT22;2816;49.778;9.986;2023-02-28T03:44:44;-2.10;99.90
5588;DHT22;2816;49.778;9.986;2023-02-28T03:47:16;-2.10;99.90
5588;DHT22;2816;49.778;9.986;2023-02-28T03:49:47;-2.10;99.90
5588;DHT22;2816;49.778;9.986;2023-02-28T03:52:18;-2.20;99.90
5588;DHT22;2816;49.778;9.986;2023-02-28T03:54:50;-2.20;99.90
5588;DHT22;2816;49.778;9.986;2023-02-28T03:57:23;-2.20;99.90
5588;DHT22;2816;49.778;9.986;2023-02-28T03:59:57;-2.20;99.90
5588;DHT22;2816;49.778;9.986;2023-02-28T04:02:26;-2.20;99.90
5588;DHT22;2816;49.778;9.986;2023-02-28T04:04:54;-2.20;99.90
5588;DHT22;2816;49.778;9.986;2023-02-28T04:07:22;-2.20;99.90
5588;DHT22;2816;49.778;9.986;2023-02-28T04:09:49;-2.20;99.90
5588;DHT22;2816;49.778;9.986;2023-02-28T04:12:16;-2.20;99.90
5588;DHT22;2816;49.778;9.986;2023-02-28T04:14:43;-2.30;99.90
5588;DHT22;2816;49.778;9.986;2023-02-28T04:17:10;-2.30;99.90
5588;DHT22;2816;49.778;9.986;2023-02-28T04:19:37;-2.20;99.90
5588;DHT22;2816;49.778;9.986;2023-02-28T04:22:03;-2.30;99.90
5588;DHT22;2816;49.778;9.986;2023-02-28T04:24:32;-2.30;99.90
5588;DHT22;2816;49.778;9.986;2023-02-28T04:26:59;-2.20;99.90
5588;DHT22;2816;49.778;9.986;2023-02-28T04:29:27;-2.20;99.90
5588;DHT22;2816;49.778;9.986;2023-02-28T04:31:54;-2.20;99.90
5588;DHT22;2816;49.778;9.986;2023-02-28T04:34:23;-2.20;99.90
5588;DHT22;2816;49.778;9.986;2023-02-28T04:36:51;-2.20;99.90
5588;DHT22;2816;49.778;9.986;2023-02-28T04:39:20;-2.20;99.90
5588;DHT22;2816;49.778;9.986;2023-02-28T04:41:48;-2.20;99.90
5588;DHT22;2816;49.778;9.986;2023-02-28T04:44:15;-2.30;99.90
5588;DHT22;2816;49.778;9.986;2023-02-28T04:46:43;-2.20;99.90
5588;DHT22;2816;49.778;9.986;2023-02-28T04:49:11;-2.30;99.90
5588;DHT22;2816;49.778;9.986;2023-02-28T04:51:38;-2.20;99.90
5588;DHT22;2816;49.778;9.986;2023-02-28T04:54:05;-2.20;99.90
5588;DHT22;2816;49.778;9.986;2023-02-28T04:56:32;-2.20;99.90
5588;DHT22;2816;49.778;9.986;2023-02-28T04:59:01;-2.20;99.90
5588;DHT22;2816;49.778;9.986;2023-02-28T05:01:29;-2.30;99.90
5588;DHT22;2816;49.778;9.986;2023-02-28T05:03:58;-2.20;99.90
5588;DHT22;2816;49.778;9.986;2023-02-28T05:06:27;-2.30;99.90
5588;DHT22;2816;49.778;9.986;2023-02-28T05:08:56;-2.30;99.90
5588;DHT22;2816;49.778;9.986;2023-02-28T05:11:24;-2.30;99.90
5588;DHT22;2816;49.778;9.986;2023-02-28T05:13:52;-2.40;99.90
5588;DHT22;2816;49.778;9.986;2023-02-28T05:16:22;-2.40;99.90
5588;DHT22;2816;49.778;9.986;2023-02-28T05:18:48;-2.40;99.90
5588;DHT22;2816;49.778;9.986;2023-02-28T05:21:25;-2.40;99.90
5588;DHT22;2816;49.778;9.986;2023-02-28T05:23:52;-2.50;99.90
5588;DHT22;2816;49.778;9.986;2023-02-28T05:26:20;-2.50;99.90
5588;DHT22;2816;49.778;9.986;2023-02-28T05:28:46;-2.40;99.90
5588;DHT22;2816;49.778;9.986;2023-02-28T05:31:14;-2.30;99.90
5588;DHT22;2816;49.778;9.986;2023-02-28T05:33:42;-2.40;99.90
5588;DHT22;2816;49.778;9.986;2023-02-28T05:36:10;-2.40;99.90
5588;DHT22;2816;49.778;9.986;2023-02-28T05:38:36;-2.40;99.90
5588;DHT22;2816;49.778;9.986;2023-02-28T05:41:07;-2.50;99.90
5588;DHT22;2816;49.778;9.986;2023-02-28T05:43:34;-2.40;99.90
5588;DHT22;2816;49.778;9.986;2023-02-28T05:46:03;-2.50;99.90
5588;DHT22;2816;49.778;9.986;2023-02-28T05:48:31;-2.50;99.90
5588;DHT22;2816;49.778;9.986;2023-02-28T05:50:59;-2.50;99.90
5588;DHT22;2816;49.778;9.986;2023-02-28T05:53:28;-2.50;99.90
5588;DHT22;2816;49.778;9.986;2023-02-28T05:55:55;-2.40;99.90
5588;DHT22;2816;49.778;9.986;2023-02-28T05:58:22;-2.50;99.90
5588;DHT22;2816;49.778;9.986;2023-02-28T06:00:51;-2.40;99.90
5588;DHT22;2816;49.778;9.986;2023-02-28T06:03:18;-2.50;99.90
5588;DHT22;2816;49.778;9.986;2023-02-28T06:05:44;-2.40;99.90
5588;DHT22;2816;49.778;9.986;2023-02-28T06:08:13;-2.40;99.90
5588;DHT22;2816;49.778;9.986;2023-02-28T06:10:40;-2.40;99.90
5588;DHT22;2816;49.778;9.986;2023-02-28T06:13:07;-2.50;99.90
5588;DHT22;2816;49.778;9.986;2023-02-28T06:15:33;-2.50;99.90
5588;DHT22;2816;49.778;9.986;2023-02-28T06:18:00;-2.50;99.90
5588;DHT22;2816;49.778;9.986;2023-02-28T06:20:27;-2.50;99.90
5588;DHT22;2816;49.778;9.986;2023-02-28T06:22:55;-2.40;99.90
5588;DHT22;2816;49.778;9.986;2023-02-28T06:25:26;-2.40;99.90
5588;DHT22;2816;49.778;9.986;2023-02-28T06:27:53;-2.40;99.90
5588;DHT22;2816;49.778;9.986;2023-02-28T06:30:20;-2.50;99.90
5588;DHT22;2816;49.778;9.986;2023-02-28T06:32:50;-2.40;99.90
5588;DHT22;2816;49.778;9.986;2023-02-28T06:35:18;-2.40;99.90
5588;DHT22;2816;49.778;9.986;2023-02-28T06:37:45;-2.40;99.90
5588;DHT22;2816;49.778;9.986;2023-02-28T06:40:13;-2.30;99.90
5588;DHT22;2816;49.778;9.986;2023-02-28T06:42:41;-2.30;99.90
5588;DHT22;2816;49.778;9.986;2023-02-28T06:45:09;-2.30;99.90
5588;DHT22;2816;49.778;9.986;2023-02-28T06:47:36;-2.30;99.90
5588;DHT22;2816;49.778;9.986;2023-02-28T06:50:05;-2.30;99.90
5588;DHT22;2816;49.778;9.986;2023-02-28T06:52:32;-2.30;99.90
5588;DHT22;2816;49.778;9.986;2023-02-28T06:55:01;-2.20;99.90
5588;DHT22;2816;49.778;9.986;2023-02-28T06:57:29;-2.30;99.90
5588;DHT22;2816;49.778;9.986;2023-02-28T06:59:59;-2.30;99.90
5588;DHT22;2816;49.778;9.986;2023-02-28T07:02:27;-2.30;99.90
5588;DHT22;2816;49.778;9.986;2023-02-28T07:04:54;-2.20;99.90
5588;DHT22;2816;49.778;9.986;2023-02-28T07:07:21;-2.10;99.90
5588;DHT22;2816;49.778;9.986;2023-02-28T07:09:48;-2.10;99.90
5588;DHT22;2816;49.778;9.986;2023-02-28T07:12:15;-2.10;99.90
5588;DHT22;2816;49.778;9.986;2023-02-28T07:14:42;-2.00;99.90
5588;DHT22;2816;49.778;9.986;2023-02-28T07:17:11;-2.00;99.90
5588;DHT22;2816;49.778;9.986;2023-02-28T07:19:38;-2.00;99.90
5588;DHT22;2816;49.778;9.986;2023-02-28T07:22:05;-2.00;99.90
5588;DHT22;2816;49.778;9.986;2023-02-28T07:24:32;-1.90;99.90
5588;DHT22;2816;49.778;9.986;2023-02-28T07:26:59;-2.00;99.90
5588;DHT22;2816;49.778;9.986;2023-02-28T07:29:27;-1.90;99.90
5588;DHT22;2816;49.778;9.986;2023-02-28T07:31:54;-1.90;99.90
5588;DHT22;2816;49.778;9.986;2023-02-28T07:34:22;-2.00;99.90
5588;DHT22;2816;49.778;9.986;2023-02-28T07:36:52;-1.90;99.90
5588;DHT22;2816;49.778;9.986;2023-02-28T07:39:19;-1.80;99.90
5588;DHT22;2816;49.778;9.986;2023-02-28T07:41:47;-1.80;99.90
5588;DHT22;2816;49.778;9.986;2023-02-28T07:44:14;-1.80;99.90
5588;DHT22;2816;49.778;9.986;2023-02-28T07:46:41;-1.80;99.90
5588;DHT22;2816;49.778;9.986;2023-02-28T07:49:08;-1.70;99.90
5588;DHT22;2816;49.778;9.986;2023-02-28T07:51:36;-1.70;99.90
5588;DHT22;2816;49.778;9.986;2023-02-28T07:54:03;-1.60;99.90
5588;DHT22;2816;49.778;9.986;2023-02-28T07:56:30;-1.50;99.90
5588;DHT22;2816;49.778;9.986;2023-02-28T07:58:57;-1.50;99.90
5588;DHT22;2816;49.778;9.986;2023-02-28T08:01:24;-1.40;99.90
5588;DHT22;2816;49.778;9.986;2023-02-28T08:03:51;-1.40;99.90
5588;DHT22;2816;49.778;9.986;2023-02-28T08:06:22;-1.40;99.90
5588;DHT22;2816;49.778;9.986;2023-02-28T08:08:50;-1.40;99.90
5588;DHT22;2816;49.778;9.986;2023-02-28T08:11:18;-1.30;99.90
5588;DHT22;2816;49.778;9.986;2023-02-28T08:13:45;-1.30;99.90
5588;DHT22;2816;49.778;9.986;2023-02-28T08:16:13;-1.20;99.90
5588;DHT22;2816;49.778;9.986;2023-02-28T08:18:43;-1.20;99.90
5588;DHT22;2816;49.778;9.986;2023-02-28T08:21:10;-1.10;99.90
5588;DHT22;2816;49.778;9.986;2023-02-28T08:23:37;-1.10;99.90
5588;DHT22;2816;49.778;9.986;2023-02-28T08:26:06;-1.00;99.90
5588;DHT22;2816;49.778;9.986;2023-02-28T08:28:33;-0.90;99.90
5588;DHT22;2816;49.778;9.986;2023-02-28T08:31:00;-0.80;99.90
5588;DHT22;2816;49.778;9.986;2023-02-28T08:33:27;-0.80;99.90
5588;DHT22;2816;49.778;9.986;2023-02-28T08:35:54;-0.70;99.90
5588;DHT22;2816;49.778;9.986;2023-02-28T08:38:22;-0.70;99.90
5588;DHT22;2816;49.778;9.986;2023-02-28T08:40:49;-0.70;99.90
5588;DHT22;2816;49.778;9.986;2023-02-28T08:43:17;-0.70;99.90
5588;DHT22;2816;49.778;9.986;2023-02-28T08:45:44;-0.50;99.90
5588;DHT22;2816;49.778;9.986;2023-02-28T08:48:11;-0.50;99.90
5588;DHT22;2816;49.778;9.986;2023-02-28T08:50:39;-0.40;99.90
5588;DHT22;2816;49.778;9.986;2023-02-28T08:53:05;-0.30;99.90
5588;DHT22;2816;49.778;9.986;2023-02-28T08:55:32;-0.30;99.90
5588;DHT22;2816;49.778;9.986;2023-02-28T08:57:59;-0.20;99.90
5588;DHT22;2816;49.778;9.986;2023-02-28T09:00:28;-0.10;99.90
5588;DHT22;2816;49.778;9.986;2023-02-28T09:02:55;0.00;99.90
5588;DHT22;2816;49.778;9.986;2023-02-28T09:05:22;0.10;99.90
5588;DHT22;2816;49.778;9.986;2023-02-28T09:07:49;0.20;99.90
5588;DHT22;2816;49.778;9.986;2023-02-28T09:10:16;0.20;99.90
5588;DHT22;2816;49.778;9.986;2023-02-28T09:12:43;0.20;99.90
5588;DHT22;2816;49.778;9.986;2023-02-28T09:15:12;0.30;99.90
5588;DHT22;2816;49.778;9.986;2023-02-28T09:17:40;0.30;99.90
5588;DHT22;2816;49.778;9.986;2023-02-28T09:20:08;0.30;99.90
5588;DHT22;2816;49.778;9.986;2023-02-28T09:22:36;0.30;99.90
5588;DHT22;2816;49.778;9.986;2023-02-28T09:25:03;0.40;99.90
5588;DHT22;2816;49.778;9.986;2023-02-28T09:27:30;0.50;99.90
5588;DHT22;2816;49.778;9.986;2023-02-28T09:29:57;0.60;99.90
5588;DHT22;2816;49.778;9.986;2023-02-28T09:32:24;0.60;99.90
5588;DHT22;2816;49.778;9.986;2023-02-28T09:34:52;0.70;99.90
5588;DHT22;2816;49.778;9.986;2023-02-28T09:37:19;0.80;99.90
5588;DHT22;2816;49.778;9.986;2023-02-28T09:39:46;0.80;99.90
5588;DHT22;2816;49.778;9.986;2023-02-28T09:42:20;0.90;99.90
5588;DHT22;2816;49.778;9.986;2023-02-28T09:44:49;1.10;99.90
5588;DHT22;2816;49.778;9.986;2023-02-28T09:47:21;1.10;99.90
5588;DHT22;2816;49.778;9.986;2023-02-28T09:49:56;1.10;99.90
5588;DHT22;2816;49.778;9.986;2023-02-28T09:52:29;1.20;99.90
5588;DHT22;2816;49.778;9.986;2023-02-28T09:55:01;1.20;99.90
5588;DHT22;2816;49.778;9.986;2023-02-28T09:57:38;1.30;99.90
5588;DHT22;2816;49.778;9.986;2023-02-28T10:00:14;1.40;99.90
5588;DHT22;2816;49.778;9.986;2023-02-28T10:03:05;1.50;99.90
5588;DHT22;2816;49.778;9.986;2023-02-28T10:05:37;1.80;99.90
5588;DHT22;2816;49.778;9.986;2023-02-28T10:08:12;1.60;99.90
5588;DHT22;2816;49.778;9.986;2023-02-28T10:10:42;1.70;99.90
5588;DHT22;2816;49.778;9.986;2023-02-28T10:13:21;1.70;99.90
5588;DHT22;2816;49.778;9.986;2023-02-28T10:15:54;1.90;99.90
5588;DHT22;2816;49.778;9.986;2023-02-28T10:18:25;1.90;99.90
5588;DHT22;2816;49.778;9.986;2023-02-28T10:20:54;1.90;99.90
5588;DHT22;2816;49.778;9.986;2023-02-28T10:23:27;2.10;99.90
5588;DHT22;2816;49.778;9.986;2023-02-28T10:25:59;2.20;99.90
5588;DHT22;2816;49.778;9.986;2023-02-28T10:28:29;2.20;99.90
5588;DHT22;2816;49.778;9.986;2023-02-28T10:30:58;2.20;99.90
5588;DHT22;2816;49.778;9.986;2023-02-28T10:33:28;2.20;99.90
5588;DHT22;2816;49.778;9.986;2023-02-28T10:35:57;2.10;99.90
5588;DHT22;2816;49.778;9.986;2023-02-28T10:38:26;2.00;99.90
5588;DHT22;2816;49.778;9.986;2023-02-28T10:41:04;2.00;99.90
5588;DHT22;2816;49.778;9.986;2023-02-28T10:43:31;2.10;99.90
5588;DHT22;2816;49.778;9.986;2023-02-28T10:46:02;2.00;99.90
5588;DHT22;2816;49.778;9.986;2023-02-28T10:48:34;1.90;99.90
5588;DHT22;2816;49.778;9.986;2023-02-28T10:51:05;1.80;99.90
5588;DHT22;2816;49.778;9.986;2023-02-28T10:53:37;1.80;99.90
5588;DHT22;2816;49.778;9.986;2023-02-28T10:56:15;1.70;99.90
5588;DHT22;2816;49.778;9.986;2023-02-28T10:58:49;1.80;99.90
5588;DHT22;2816;49.778;9.986;2023-02-28T11:01:18;1.90;99.90
5588;DHT22;2816;49.778;9.986;2023-02-28T11:03:45;2.10;99.90
5588;DHT22;2816;49.778;9.986;2023-02-28T11:06:17;2.30;99.90
5588;DHT22;2816;49.778;9.986;2023-02-28T11:08:51;2.40;99.90
5588;DHT22;2816;49.778;9.986;2023-02-28T11:11:19;2.40;99.90
5588;DHT22;2816;49.778;9.986;2023-02-28T11:13:49;2.40;99.90
5588;DHT22;2816;49.778;9.986;2023-02-28T11:16:17;2.40;99.90
5588;DHT22;2816;49.778;9.986;2023-02-28T11:18:48;2.40;99.90
5588;DHT22;2816;49.778;9.986;2023-02-28T11:21:20;2.30;99.90
5588;DHT22;2816;49.778;9.986;2023-02-28T11:23:50;2.30;99.90
5588;DHT22;2816;49.778;9.986;2023-02-28T11:26:36;2.40;99.90
5588;DHT22;2816;49.778;9.986;2023-02-28T11:29:12;2.40;99.90
5588;DHT22;2816;49.778;9.986;2023-02-28T11:31:39;2.30;99.90
5588;DHT22;2816;49.778;9.986;2023-02-28T11:34:22;2.30;99.90
5588;DHT22;2816;49.778;9.986;2023-02-28T11:36:52;2.20;99.90
5588;DHT22;2816;49.778;9.986;2023-02-28T11:39:19;2.40;99.90
5588;DHT22;2816;49.778;9.986;2023-02-28T11:44:55;2.80;99.90
5588;DHT22;2816;49.778;9.986;2023-02-28T11:47:32;2.90;99.90
5588;DHT22;2816;49.778;9.986;2023-02-28T11:50:15;3.00;99.90
5588;DHT22;2816;49.778;9.986;2023-02-28T11:52:50;2.90;99.90
5588;DHT22;2816;49.778;9.986;2023-02-28T11:55:24;2.90;99.90
5588;DHT22;2816;49.778;9.986;2023-02-28T11:58:01;3.10;99.90
5588;DHT22;2816;49.778;9.986;2023-02-28T12:00:44;3.10;99.90
5588;DHT22;2816;49.778;9.986;2023-02-28T12:03:22;3.30;99.90
5588;DHT22;2816;49.778;9.986;2023-02-28T12:06:01;3.30;99.90
5588;DHT22;2816;49.778;9.986;2023-02-28T12:08:42;3.50;99.90
5588;DHT22;2816;49.778;9.986;2023-02-28T12:11:19;3.50;99.90
5588;DHT22;2816;49.778;9.986;2023-02-28T12:14:00;3.60;99.90
5588;DHT22;2816;49.778;9.986;2023-02-28T12:16:49;3.20;99.90
5588;DHT22;2816;49.778;9.986;2023-02-28T12:19:26;3.20;99.90
5588;DHT22;2816;49.778;9.986;2023-02-28T12:22:06;3.30;99.90
5588;DHT22;2816;49.778;9.986;2023-02-28T12:27:46;3.30;99.90
5588;DHT22;2816;49.778;9.986;2023-02-28T12:30:17;3.30;99.90
5588;DHT22;2816;49.778;9.986;2023-02-28T12:32:48;3.30;99.90
5588;DHT22;2816;49.778;9.986;2023-02-28T12:35:19;3.20;99.90
5588;DHT22;2816;49.778;9.986;2023-02-28T12:37:53;3.20;99.90
5588;DHT22;2816;49.778;9.986;2023-02-28T12:40:25;3.40;99.90
5588;DHT22;2816;49.778;9.986;2023-02-28T12:42:57;3.80;99.90
5588;DHT22;2816;49.778;9.986;2023-02-28T12:45:40;4.20;99.60
5588;DHT22;2816;49.778;9.986;2023-02-28T12:48:12;4.30;98.90
5588;DHT22;2816;49.778;9.986;2023-02-28T12:50:40;4.50;98.90
5588;DHT22;2816;49.778;9.986;2023-02-28T12:53:10;4.60;99.70
5588;DHT22;2816;49.778;9.986;2023-02-28T12:55:45;4.70;98.60
5588;DHT22;2816;49.778;9.986;2023-02-28T12:58:20;5.00;98.70
5588;DHT22;2816;49.778;9.986;2023-02-28T13:01:06;4.80;97.70
5588;DHT22;2816;49.778;9.986;2023-02-28T13:07:29;5.20;97.80
5588;DHT22;2816;49.778;9.986;2023-02-28T13:10:04;5.10;97.50
5588;DHT22;2816;49.778;9.986;2023-02-28T13:12:34;4.90;99.00
5588;DHT22;2816;49.778;9.986;2023-02-28T13:15:05;4.60;99.40
5588;DHT22;2816;49.778;9.986;2023-02-28T13:17:38;5.00;98.10
5588;DHT22;2816;49.778;9.986;2023-02-28T13:20:16;5.20;97.10
5588;DHT22;2816;49.778;9.986;2023-02-28T13:22:45;5.30;98.70
5588;DHT22;2816;49.778;9.986;2023-02-28T13:34:37;5.70;97.10
5588;DHT22;2816;49.778;9.986;2023-02-28T13:37:33;5.80;97.60
5588;DHT22;2816;49.778;9.986;2023-02-28T13:42:49;5.80;96.10
5588;DHT22;2816;49.778;9.986;2023-02-28T13:45:27;5.80;98.60
5588;DHT22;2816;49.778;9.986;2023-02-28T13:47:59;6.00;95.60
5588;DHT22;2816;49.778;9.986;2023-02-28T13:50:30;6.00;95.90
5588;DHT22;2816;49.778;9.986;2023-02-28T13:53:17;6.10;97.20
5588;DHT22;2816;49.778;9.986;2023-02-28T13:55:52;6.10;96.00
5588;DHT22;2816;49.778;9.986;2023-02-28T13:58:41;6.30;96.60
5588;DHT22;2816;49.778;9.986;2023-02-28T14:01:29;6.60;95.40
5588;DHT22;2816;49.778;9.986;2023-02-28T14:07:02;6.60;95.20
5588;DHT22;2816;49.778;9.986;2023-02-28T14:09:32;6.70;95.80
5588;DHT22;2816;49.778;9.986;2023-02-28T14:14:59;6.20;95.10
5588;DHT22;2816;49.778;9.986;2023-02-28T14:17:27;6.40;95.60
5588;DHT22;2816;49.778;9.986;2023-02-28T14:19:57;6.70;94.70
5588;DHT22;2816;49.778;9.986;2023-02-28T14:22:53;6.20;97.20
5588;DHT22;2816;49.778;9.986;2023-02-28T14:25:25;6.10;94.20
5588;DHT22;2816;49.778;9.986;2023-02-28T14:28:06;6.40;94.20
5588;DHT22;2816;49.778;9.986;2023-02-28T14:31:00;6.50;94.60
5588;DHT22;2816;49.778;9.986;2023-02-28T14:33:39;6.80;94.90
5588;DHT22;2816;49.778;9.986;2023-02-28T14:36:16;6.30;95.30
5588;DHT22;2816;49.778;9.986;2023-02-28T14:38:47;6.40;94.70
5588;DHT22;2816;49.778;9.986;2023-02-28T14:41:22;6.30;94.40
5588;DHT22;2816;49.778;9.986;2023-02-28T14:43:52;6.20;95.80
5588;DHT22;2816;49.778;9.986;2023-02-28T14:46:19;6.20;94.20
5588;DHT22;2816;49.778;9.986;2023-02-28T14:48:47;6.60;94.20
5588;DHT22;2816;49.778;9.986;2023-02-28T14:51:21;6.60;93.60
5588;DHT22;2816;49.778;9.986;2023-02-28T14:53:51;6.70;95.00
5588;DHT22;2816;49.778;9.986;2023-02-28T14:56:24;6.40;94.30
5588;DHT22;2816;49.778;9.986;2023-02-28T14:58:52;6.50;94.50
5588;DHT22;2816;49.778;9.986;2023-02-28T15:01:20;6.90;94.20
5588;DHT22;2816;49.778;9.986;2023-02-28T15:03:48;6.70;93.40
5588;DHT22;2816;49.778;9.986;2023-02-28T15:06:25;6.50;94.20
5588;DHT22;2816;49.778;9.986;2023-02-28T15:09:08;6.60;94.10
5588;DHT22;2816;49.778;9.986;2023-02-28T15:11:36;6.80;94.60
5588;DHT22;2816;49.778;9.986;2023-02-28T15:14:04;6.80;93.00
5588;DHT22;2816;49.778;9.986;2023-02-28T15:16:33;6.00;93.30
5588;DHT22;2816;49.778;9.986;2023-02-28T15:19:03;6.10;96.50
5588;DHT22;2816;49.778;9.986;2023-02-28T15:21:35;6.20;94.40
5588;DHT22;2816;49.778;9.986;2023-02-28T15:24:04;6.40;94.10
5588;DHT22;2816;49.778;9.986;2023-02-28T15:26:34;6.20;93.80
5588;DHT22;2816;49.778;9.986;2023-02-28T15:29:05;6.20;94.20
5588;DHT22;2816;49.778;9.986;2023-02-28T15:31:35;6.20;93.90
5588;DHT22;2816;49.778;9.986;2023-02-28T15:34:04;6.10;93.70
5588;DHT22;2816;49.778;9.986;2023-02-28T15:36:34;5.90;94.00
5588;DHT22;2816;49.778;9.986;2023-02-28T15:39:16;5.80;94.10
5588;DHT22;2816;49.778;9.986;2023-02-28T15:41:44;5.40;95.90
5588;DHT22;2816;49.778;9.986;2023-02-28T15:44:24;5.30;95.80
5588;DHT22;2816;49.778;9.986;2023-02-28T15:46:59;5.40;95.00
5588;DHT22;2816;49.778;9.986;2023-02-28T15:49:28;5.30;95.20
5588;DHT22;2816;49.778;9.986;2023-02-28T15:51:59;5.30;96.80
5588;DHT22;2816;49.778;9.986;2023-02-28T15:54:29;5.20;95.40
5588;DHT22;2816;49.778;9.986;2023-02-28T15:56:59;5.20;95.10
5588;DHT22;2816;49.778;9.986;2023-02-28T15:59:29;5.20;95.40
5588;DHT22;2816;49.778;9.986;2023-02-28T16:02:15;5.10;95.40
5588;DHT22;2816;49.778;9.986;2023-02-28T16:04:58;4.90;96.00
5588;DHT22;2816;49.778;9.986;2023-02-28T16:07:27;4.60;95.60
5588;DHT22;2816;49.778;9.986;2023-02-28T16:09:54;4.60;96.00
5588;DHT22;2816;49.778;9.986;2023-02-28T16:12:25;4.60;96.40
5588;DHT22;2816;49.778;9.986;2023-02-28T16:14:53;4.60;96.60
5588;DHT22;2816;49.778;9.986;2023-02-28T16:17:22;4.40;97.20
5588;DHT22;2816;49.778;9.986;2023-02-28T16:19:49;4.30;98.40
5588;DHT22;2816;49.778;9.986;2023-02-28T16:22:16;4.30;98.00
5588;DHT22;2816;49.778;9.986;2023-02-28T16:24:45;4.30;96.80
5588;DHT22;2816;49.778;9.986;2023-02-28T16:27:17;4.30;97.00
5588;DHT22;2816;49.778;9.986;2023-02-28T16:29:45;4.30;97.10
5588;DHT22;2816;49.778;9.986;2023-02-28T16:32:13;4.20;97.30
5588;DHT22;2816;49.778;9.986;2023-02-28T16:34:40;4.20;97.40
5588;DHT22;2816;49.778;9.986;2023-02-28T16:37:13;4.10;97.70
5588;DHT22;2816;49.778;9.986;2023-02-28T16:39:41;4.00;97.80
5588;DHT22;2816;49.778;9.986;2023-02-28T16:42:16;4.00;98.00
5588;DHT22;2816;49.778;9.986;2023-02-28T16:44:46;3.90;98.00
5588;DHT22;2816;49.778;9.986;2023-02-28T16:47:13;3.90;98.10
5588;DHT22;2816;49.778;9.986;2023-02-28T16:49:40;3.90;98.40
5588;DHT22;2816;49.778;9.986;2023-02-28T16:52:08;3.80;98.40
5588;DHT22;2816;49.778;9.986;2023-02-28T16:54:35;3.70;98.30
5588;DHT22;2816;49.778;9.986;2023-02-28T16:57:02;3.70;98.90
5588;DHT22;2816;49.778;9.986;2023-02-28T16:59:31;3.60;98.80
5588;DHT22;2816;49.778;9.986;2023-02-28T17:01:58;3.50;99.00
5588;DHT22;2816;49.778;9.986;2023-02-28T17:04:25;3.40;99.10
5588;DHT22;2816;49.778;9.986;2023-02-28T17:06:52;3.40;99.30
5588;DHT22;2816;49.778;9.986;2023-02-28T17:09:22;3.40;99.60
5588;DHT22;2816;49.778;9.986;2023-02-28T17:11:50;3.30;99.40